Time;durP1;ratioP1;P1;durP2;ratioP2;P2;SDS_P1;SDS_P2;PMS_P1;PMS_P2;Temp;Humidity;BMP_temperature;BMP_pressure;BME280_temperature;BME280_humidity;BME280_pressure;Samples;Min_cycle;Max_cycle;Signal;HPM_P1;HPM_P2
2021/12/03 00:00:20;;;;;;;0.20;0.20;;;;;;;-2.19;100.00;99804.16;5070810;28;20059;-88
2021/12/03 00:02:49;;;;;;;0.20;0.20;;;;;;;-2.27;100.00;99808.69;5068453;28;20056;-87
2021/12/03 00:05:23;;;;;;;0.20;0.20;;;;;;;-1.86;100.00;99853.69;5067497;28;20056;-87
2021/12/03 00:07:56;;;;;;;0.10;0.10;;;;;;;-1.91;100.00;99860.50;5068327;28;20050;-88
2021/12/03 00:10:29;;;;;;;0.10;0.10;;;;;;;-2.03;100.00;99848.09;5063238;28;20412;-88
2021/12/03 00:12:58;;;;;;;0.10;0.10;;;;;;;-1.96;100.00;99860.34;5058985;28;20051;-89
2021/12/03 00:15:33;;;;;;;0.20;0.20;;;;;;;-2.07;100.00;99840.53;5072046;28;20040;-88
2021/12/03 00:18:02;;;;;;;0.20;0.20;;;;;;;-1.81;100.00;99861.88;5068769;28;20037;-87
2021/12/03 00:20:34;;;;;;;0.20;0.20;;;;;;;-1.87;100.00;99855.56;5056657;28;20040;-88
2021/12/03 00:23:08;;;;;;;0.20;0.20;;;;;;;-1.87;100.00;99850.22;5069487;28;20083;-88
2021/12/03 00:25:41;;;;;;;0.30;0.30;;;;;;;-1.81;100.00;99853.88;5061412;28;20056;-89
2021/12/03 00:28:15;;;;;;;0.20;0.20;;;;;;;-1.79;100.00;99857.94;5063643;28;20049;-89
2021/12/03 00:30:48;;;;;;;0.20;0.20;;;;;;;-1.68;100.00;99859.09;5066914;28;20052;-87
2021/12/03 00:33:23;;;;;;;0.20;0.20;;;;;;;-1.78;100.00;99830.25;5071596;28;20063;-87
2021/12/03 00:35:58;;;;;;;0.10;0.10;;;;;;;-1.78;100.00;99846.25;5066910;28;20768;-87
2021/12/03 00:38:36;;;;;;;0.20;0.20;;;;;;;-1.80;100.00;99847.50;5066452;28;20051;-87
2021/12/03 00:41:12;;;;;;;0.20;0.20;;;;;;;-1.86;100.00;99833.19;5063921;28;20048;-86
2021/12/03 00:43:46;;;;;;;0.20;0.20;;;;;;;-1.84;100.00;99847.09;5061907;28;20036;-87
2021/12/03 00:46:21;;;;;;;0.20;0.20;;;;;;;-1.84;100.00;99851.63;5071658;28;20049;-89
2021/12/03 00:48:53;;;;;;;0.10;0.10;;;;;;;-1.86;100.00;99849.19;5063197;28;20079;-88
2021/12/03 00:51:26;;;;;;;0.20;0.20;;;;;;;-2.10;100.00;99821.47;5070849;28;20071;-87
2021/12/03 00:53:55;;;;;;;0.20;0.20;;;;;;;-2.22;100.00;99837.38;5068528;28;20052;-88
2021/12/03 00:56:23;;;;;;;0.20;0.20;;;;;;;-2.13;100.00;99848.59;5072146;28;20041;-86
2021/12/03 00:58:52;;;;;;;0.20;0.20;;;;;;;-2.05;100.00;99864.31;5057045;28;20052;-88
2021/12/03 01:01:25;;;;;;;0.30;0.30;;;;;;;-2.09;100.00;99868.44;5068190;28;20052;-89
2021/12/03 01:03:55;;;;;;;0.20;0.20;;;;;;;-2.05;100.00;99874.97;5066317;28;20421;-88
2021/12/03 01:06:28;;;;;;;0.20;0.20;;;;;;;-2.08;100.00;99884.22;5086887;28;20405;-88
2021/12/03 01:08:56;;;;;;;0.20;0.20;;;;;;;-1.94;100.00;99882.28;5063340;28;20048;-88
2021/12/03 01:11:24;;;;;;;0.20;0.20;;;;;;;-1.89;100.00;99878.97;5059707;28;20049;-88
2021/12/03 01:13:57;;;;;;;0.20;0.20;;;;;;;-1.64;100.00;99881.63;5064949;28;20049;-86
2021/12/03 01:16:25;;;;;;;0.20;0.20;;;;;;;-1.62;100.00;99882.22;5064475;28;20045;-88
2021/12/03 01:19:00;;;;;;;0.20;0.20;;;;;;;-1.66;100.00;99889.03;5069560;28;20048;-88
2021/12/03 01:21:34;;;;;;;0.20;0.20;;;;;;;-1.74;100.00;99884.78;5065136;28;20056;-88
2021/12/03 01:24:08;;;;;;;0.20;0.20;;;;;;;-1.81;100.00;99886.72;5056283;28;20057;-89
2021/12/03 01:26:43;;;;;;;0.20;0.20;;;;;;;-1.72;100.00;99879.25;5065557;28;20408;-87
2021/12/03 01:29:17;;;;;;;0.20;0.20;;;;;;;-1.64;100.00;99872.78;5065010;28;20061;-88
2021/12/03 01:31:53;;;;;;;0.20;0.20;;;;;;;-1.63;100.00;99874.44;5067370;28;20045;-87
2021/12/03 01:34:27;;;;;;;0.20;0.20;;;;;;;-1.61;100.00;99883.03;5071994;28;20056;-87
2021/12/03 01:36:56;;;;;;;0.10;0.10;;;;;;;-1.57;100.00;99878.91;5068075;28;20664;-86
2021/12/03 01:39:24;;;;;;;0.13;0.13;;;;;;;-1.74;100.00;99843.94;5064085;28;20045;-89
2021/12/03 01:41:57;;;;;;;0.20;0.20;;;;;;;-1.52;100.00;99876.38;5069363;28;20059;-87
2021/12/03 01:44:26;;;;;;;0.20;0.20;;;;;;;-1.49;100.00;99867.13;5071003;28;20053;-87
2021/12/03 01:46:59;;;;;;;0.20;0.20;;;;;;;-1.54;100.00;99873.94;5069991;28;20041;-87
2021/12/03 01:49:34;;;;;;;0.20;0.20;;;;;;;-1.83;100.00;99826.59;5068564;28;20037;-89
2021/12/03 01:52:02;;;;;;;0.20;0.20;;;;;;;-1.90;100.00;99834.66;5075661;28;20056;-89
2021/12/03 01:54:30;;;;;;;0.20;0.20;;;;;;;-1.69;100.00;99884.13;5067949;28;20060;-89
2021/12/03 01:57:04;;;;;;;0.20;0.20;;;;;;;-1.61;100.00;99883.84;5067829;28;20056;-89
2021/12/03 01:59:33;;;;;;;0.20;0.20;;;;;;;-1.71;100.00;99867.53;5066360;28;20435;-89
2021/12/03 02:02:06;;;;;;;0.20;0.20;;;;;;;-1.75;100.00;99869.00;5071778;28;20056;-88
2021/12/03 02:04:36;;;;;;;0.20;0.20;;;;;;;-1.70;100.00;99861.16;5077869;28;20538;-89
2021/12/03 02:07:09;;;;;;;0.20;0.20;;;;;;;-1.60;100.00;99880.16;5069450;28;20178;-88
2021/12/03 02:09:37;;;;;;;0.20;0.20;;;;;;;-1.64;100.00;99878.97;5068500;28;20067;-88
2021/12/03 02:12:11;;;;;;;0.20;0.20;;;;;;;-1.66;100.00;99867.69;5065441;28;20071;-88
2021/12/03 02:14:45;;;;;;;0.20;0.20;;;;;;;-1.64;100.00;99886.13;5070451;28;20044;-87
2021/12/03 02:17:13;;;;;;;0.20;0.20;;;;;;;-1.68;100.00;99887.63;5060958;28;20061;-88
2021/12/03 02:19:47;;;;;;;0.20;0.20;;;;;;;-1.92;100.00;99858.88;5071383;28;20532;-89
2021/12/03 02:22:22;;;;;;;0.20;0.20;;;;;;;-1.60;100.00;99892.66;5071157;28;20057;-88
2021/12/03 02:24:55;;;;;;;0.20;0.20;;;;;;;-1.52;100.00;99894.25;5064639;28;20063;-87
2021/12/03 02:27:24;;;;;;;0.20;0.20;;;;;;;-1.54;100.00;99905.94;5071155;28;20053;-88
2021/12/03 02:29:52;;;;;;;0.15;0.15;;;;;;;-1.50;100.00;99902.88;5065811;28;20040;-85
2021/12/03 02:32:20;;;;;;;0.20;0.20;;;;;;;-1.44;100.00;99893.97;5067188;28;20065;-87
2021/12/03 02:34:53;;;;;;;0.20;0.20;;;;;;;-1.57;100.00;99878.91;5064334;28;20402;-88
2021/12/03 02:37:23;;;;;;;0.20;0.20;;;;;;;-1.43;100.00;99896.41;5076943;28;20048;-87
2021/12/03 02:39:51;;;;;;;0.13;0.13;;;;;;;-1.68;100.00;99861.75;5064770;28;20053;-85
2021/12/03 02:42:25;;;;;;;0.20;0.20;;;;;;;-1.47;100.00;99900.56;5074743;28;20052;-88
2021/12/03 02:44:53;;;;;;;0.20;0.20;;;;;;;-1.70;100.00;99893.16;5069598;28;20070;-86
2021/12/03 02:47:21;;;;;;;0.20;0.20;;;;;;;-1.64;100.00;99902.97;5067273;28;20052;-87
2021/12/03 02:49:54;;;;;;;0.20;0.20;;;;;;;-1.71;100.00;99913.69;5065194;28;20044;-87
2021/12/03 02:52:29;;;;;;;0.20;0.20;;;;;;;-1.75;100.00;99906.34;5066984;28;20053;-86
2021/12/03 02:54:58;;;;;;;0.20;0.20;;;;;;;-1.71;100.00;99894.22;5061703;28;20044;-87
2021/12/03 02:57:31;;;;;;;0.20;0.20;;;;;;;-2.19;100.00;99839.59;5069470;28;20063;-87
2021/12/03 03:00:07;;;;;;;0.10;0.10;;;;;;;-1.69;100.00;99910.00;5073642;28;20051;-87
2021/12/03 03:02:41;;;;;;;0.13;0.13;;;;;;;-1.76;100.00;99908.19;5071850;28;20476;-88
2021/12/03 03:05:16;;;;;;;0.10;0.10;;;;;;;-1.74;100.00;99918.63;5058334;28;20052;-87
2021/12/03 03:07:50;;;;;;;0.20;0.20;;;;;;;-1.71;100.00;99919.03;5057559;28;20492;-86
2021/12/03 03:10:30;;;;;;;0.10;0.10;;;;;;;-1.81;100.00;99904.53;5078983;28;20497;-87
2021/12/03 03:13:03;;;;;;;0.20;0.20;;;;;;;-1.62;100.00;99932.91;5064885;28;20053;-88
2021/12/03 03:15:31;;;;;;;0.20;0.20;;;;;;;-1.79;100.00;99913.97;5081299;28;20044;-88
2021/12/03 03:18:12;;;;;;;0.17;0.17;;;;;;;-1.75;100.00;99923.16;5088609;28;20048;-88
2021/12/03 03:20:46;;;;;;;0.10;0.10;;;;;;;-1.69;100.00;99945.50;5064093;28;20048;-89
2021/12/03 03:23:22;;;;;;;0.20;0.20;;;;;;;-1.70;100.00;99943.84;5071807;28;20055;-88
2021/12/03 03:25:56;;;;;;;0.20;0.20;;;;;;;-1.85;100.00;99932.69;5069385;28;20041;-87
2021/12/03 03:28:25;;;;;;;0.20;0.20;;;;;;;-1.81;100.00;99941.88;5062720;28;20049;-88
2021/12/03 03:31:00;;;;;;;0.20;0.20;;;;;;;-1.80;100.00;99944.34;5073696;28;20048;-88
2021/12/03 03:33:34;;;;;;;0.17;0.17;;;;;;;-1.84;100.00;99937.00;5069391;28;20048;-88
2021/12/03 03:36:07;;;;;;;0.20;0.20;;;;;;;-1.81;100.00;99934.72;5067217;28;20049;-86
2021/12/03 03:38:37;;;;;;;0.20;0.20;;;;;;;-2.03;100.00;99888.09;5076385;28;20052;-86
2021/12/03 03:41:10;;;;;;;0.20;0.20;;;;;;;-1.78;100.00;99910.28;5068470;28;20045;-87
2021/12/03 03:43:43;;;;;;;0.20;0.20;;;;;;;-1.73;100.00;99914.94;5070120;28;20413;-86
2021/12/03 03:46:17;;;;;;;0.20;0.20;;;;;;;-1.76;100.00;99915.38;5068817;28;20051;-87
2021/12/03 03:48:50;;;;;;;0.20;0.20;;;;;;;-1.80;100.00;99915.00;5068272;28;20386;-88
2021/12/03 03:51:24;;;;;;;0.20;0.20;;;;;;;-1.99;100.00;99873.28;5073100;28;20044;-86
2021/12/03 03:53:59;;;;;;;0.17;0.17;;;;;;;-1.80;100.00;99914.19;5064979;28;20067;-88
2021/12/03 03:56:32;;;;;;;0.20;0.20;;;;;;;-1.92;100.00;99914.88;5061687;28;20044;-86
2021/12/03 03:59:05;;;;;;;0.20;0.20;;;;;;;-2.11;100.00;99881.19;5064842;28;20059;-87
2021/12/03 04:01:39;;;;;;;0.20;0.20;;;;;;;-1.89;100.00;99914.44;5070588;28;20047;-86
2021/12/03 04:04:12;;;;;;;0.20;0.20;;;;;;;-1.69;100.00;99912.66;5076261;28;20060;-88
2021/12/03 04:06:46;;;;;;;0.20;0.20;;;;;;;-1.75;100.00;99922.34;5059446;28;20048;-88
2021/12/03 04:09:20;;;;;;;0.20;0.20;;;;;;;-1.63;100.00;99917.94;5067112;28;20424;-88
2021/12/03 04:11:49;;;;;;;0.20;0.20;;;;;;;-1.64;100.00;99913.66;5069214;28;20064;-88
2021/12/03 04:14:22;;;;;;;0.25;0.25;;;;;;;-1.49;100.00;99923.16;5058067;28;20401;-87
2021/12/03 04:16:55;;;;;;;0.20;0.20;;;;;;;-1.40;100.00;99936.00;5068430;28;20067;-88
2021/12/03 04:19:23;;;;;;;0.20;0.20;;;;;;;-1.37;100.00;99935.59;5061599;28;20056;-88
2021/12/03 04:21:57;;;;;;;0.30;0.30;;;;;;;-1.47;100.00;99919.25;5060304;28;20063;-89
2021/12/03 04:24:32;;;;;;;0.20;0.20;;;;;;;-1.28;100.00;99946.78;5064590;28;20374;-88
2021/12/03 04:27:06;;;;;;;0.20;0.20;;;;;;;-1.21;100.00;99955.53;5061788;28;20033;-89
2021/12/03 04:29:34;;;;;;;0.20;0.20;;;;;;;-1.14;100.00;99947.47;5070863;28;20052;-88
2021/12/03 04:32:08;;;;;;;0.20;0.20;;;;;;;-1.02;100.00;99931.56;5060829;28;20600;-86
2021/12/03 04:34:37;;;;;;;0.20;0.20;;;;;;;-1.14;100.00;99931.47;5068936;28;20885;-88
2021/12/03 04:37:10;;;;;;;0.20;0.20;;;;;;;-1.14;100.00;99919.97;5063794;28;20041;-88
2021/12/03 04:39:40;;;;;;;0.20;0.20;;;;;;;-1.23;100.00;99909.56;5070930;28;20055;-87
2021/12/03 04:42:08;;;;;;;0.20;0.20;;;;;;;-1.23;100.00;99912.25;5071650;28;20044;-88
2021/12/03 04:44:42;;;;;;;0.20;0.20;;;;;;;-1.25;100.00;99906.28;5060746;28;20051;-89
2021/12/03 04:47:15;;;;;;;0.13;0.13;;;;;;;-1.31;100.00;99906.34;5064774;28;20049;-88
2021/12/03 04:49:48;;;;;;;0.20;0.20;;;;;;;-1.30;100.00;99919.47;5064134;28;20050;-88
2021/12/03 04:52:21;;;;;;;0.20;0.20;;;;;;;-1.35;100.00;99924.69;5068766;28;20047;-88
2021/12/03 04:54:56;;;;;;;0.20;0.20;;;;;;;-1.32;100.00;99931.44;5068799;28;20048;-88
2021/12/03 04:57:24;;;;;;;0.20;0.20;;;;;;;-1.35;100.00;99932.69;5069251;28;20059;-88
2021/12/03 04:59:53;;;;;;;0.20;0.20;;;;;;;-1.28;100.00;99938.78;5066199;28;20056;-88
2021/12/03 05:02:22;;;;;;;0.10;0.10;;;;;;;-1.37;100.00;99937.41;5063048;28;20045;-88
2021/12/03 05:04:59;;;;;;;0.20;0.20;;;;;;;-1.39;100.00;99926.97;5083123;28;20389;-89
2021/12/03 05:07:52;;;;;;;0.10;0.10;;;;;;;-1.45;100.00;99943.03;5057622;28;20377;-89
2021/12/03 05:10:29;;;;;;;0.20;0.20;;;;;;;-1.46;100.00;99936.88;5057805;28;20052;-89
2021/12/03 05:13:05;;;;;;;0.20;0.20;;;;;;;-1.39;100.00;99934.16;5067852;28;20049;-88
2021/12/03 05:15:34;;;;;;;0.20;0.20;;;;;;;-1.61;100.00;99893.72;5060516;28;20801;-88
2021/12/03 05:18:09;;;;;;;0.10;0.10;;;;;;;-1.46;100.00;99915.53;5068208;28;20052;-88
2021/12/03 05:20:37;;;;;;;0.20;0.20;;;;;;;-1.43;100.00;99920.44;5064555;28;20056;-88
2021/12/03 05:23:10;;;;;;;0.20;0.20;;;;;;;-1.48;100.00;99912.25;5066449;28;20057;-88
2021/12/03 05:25:45;;;;;;;0.10;0.10;;;;;;;-1.69;100.00;99892.13;5056246;28;20056;-89
2021/12/03 05:28:19;;;;;;;0.28;0.20;;;;;;;-1.45;100.00;99925.19;5059182;28;20045;-87
2021/12/03 05:30:47;;;;;;;0.20;0.20;;;;;;;-1.59;100.00;99913.81;5065003;28;20044;-87
2021/12/03 05:33:16;;;;;;;0.20;0.20;;;;;;;-1.73;100.00;99891.78;5067700;28;20049;-88
2021/12/03 05:35:45;;;;;;;0.17;0.17;;;;;;;-1.76;100.00;99889.50;5059855;28;20045;-86
2021/12/03 05:38:13;;;;;;;0.20;0.20;;;;;;;-1.62;100.00;99930.25;5083627;28;20044;-87
2021/12/03 05:40:41;;;;;;;0.20;0.20;;;;;;;-1.58;100.00;99930.63;5057897;28;20059;-88
2021/12/03 05:43:16;;;;;;;0.20;0.20;;;;;;;-1.65;100.00;99940.53;5068595;28;20048;-87
2021/12/03 05:45:45;;;;;;;0.20;0.20;;;;;;;-1.59;100.00;99945.84;5069557;28;20048;-87
2021/12/03 05:48:18;;;;;;;0.20;0.20;;;;;;;-1.83;100.00;99911.97;5067868;28;20056;-86
2021/12/03 05:50:51;;;;;;;0.20;0.20;;;;;;;-1.68;100.00;99944.47;5067195;28;20505;-88
2021/12/03 05:53:20;;;;;;;0.20;0.20;;;;;;;-1.84;100.00;99897.78;5062414;28;20048;-87
2021/12/03 05:55:53;;;;;;;0.20;0.20;;;;;;;-1.69;100.00;99934.81;5067560;28;20051;-87
2021/12/03 05:58:27;;;;;;;0.20;0.20;;;;;;;-1.90;100.00;99906.66;5066910;28;20417;-87
2021/12/03 06:00:55;;;;;;;0.20;0.20;;;;;;;-1.78;100.00;99920.09;5061624;28;20053;-87
2021/12/03 06:03:29;;;;;;;0.10;0.10;;;;;;;-1.69;100.00;99939.34;5066981;28;20063;-86
2021/12/03 06:06:02;;;;;;;0.17;0.17;;;;;;;-1.72;100.00;99941.41;5058459;28;20480;-88
2021/12/03 06:08:35;;;;;;;0.20;0.20;;;;;;;-1.74;100.00;99931.97;5070272;28;20056;-88
2021/12/03 06:11:09;;;;;;;0.20;0.20;;;;;;;-1.75;100.00;99928.50;5069595;28;20048;-87
2021/12/03 06:13:43;;;;;;;0.25;0.25;;;;;;;-1.96;100.00;99900.34;5074431;28;20048;-88
2021/12/03 06:16:13;;;;;;;0.20;0.20;;;;;;;-1.67;100.00;99926.59;5064849;28;20044;-88
2021/12/03 06:18:46;;;;;;;0.20;0.20;;;;;;;-1.93;100.00;99878.59;5061642;28;20048;-86
2021/12/03 06:21:15;;;;;;;0.10;0.10;;;;;;;-1.63;100.00;99936.63;5071887;28;20056;-88
2021/12/03 06:23:48;;;;;;;0.20;0.20;;;;;;;-1.69;100.00;99937.47;5063679;28;20064;-88
2021/12/03 06:26:22;;;;;;;0.20;0.20;;;;;;;-1.58;100.00;99941.31;5069566;28;20033;-88
2021/12/03 06:28:51;;;;;;;0.20;0.20;;;;;;;-1.58;100.00;99935.97;5068436;28;20049;-87
2021/12/03 06:31:25;;;;;;;0.20;0.20;;;;;;;-1.73;100.00;99942.47;5064613;28;20049;-87
2021/12/03 06:33:58;;;;;;;0.15;0.15;;;;;;;-1.67;100.00;99955.94;5068690;28;20048;-87
2021/12/03 06:36:31;;;;;;;0.22;0.22;;;;;;;-1.69;100.00;99960.69;5073223;28;20056;-87
2021/12/03 06:39:05;;;;;;;0.20;0.20;;;;;;;-1.67;100.00;99956.78;5086192;28;20044;-88
2021/12/03 06:41:38;;;;;;;0.20;0.20;;;;;;;-1.68;100.00;99962.34;5065415;28;20052;-87
2021/12/03 06:44:13;;;;;;;0.20;0.20;;;;;;;-1.71;100.00;99932.38;5065545;28;20057;-88
2021/12/03 06:46:41;;;;;;;0.15;0.15;;;;;;;-1.56;100.00;99955.22;5075658;28;20538;-87
2021/12/03 06:49:14;;;;;;;0.13;0.13;;;;;;;-1.54;100.00;99942.50;5070483;28;20092;-87
2021/12/03 06:51:49;;;;;;;0.20;0.20;;;;;;;-1.39;100.00;99942.19;5076718;28;20029;-87
2021/12/03 06:54:26;;;;;;;0.13;0.13;;;;;;;-1.45;100.00;99937.69;5065397;28;20469;-88
2021/12/03 06:57:01;;;;;;;;;;;;;;;-1.43;100.00;99952.47;5065794;28;20052;-88
2021/12/03 06:59:36;;;;;;;0.20;0.20;;;;;;;-1.45;100.00;99946.53;5062222;28;19920;-88
2021/12/03 07:02:11;;;;;;;0.20;0.20;;;;;;;-1.44;100.00;99950.00;5060538;28;20051;-87
2021/12/03 07:04:45;;;;;;;0.20;0.20;;;;;;;-1.40;100.00;99948.53;5057758;28;20051;-88
2021/12/03 07:07:13;;;;;;;0.20;0.20;;;;;;;-1.43;100.00;99951.66;5066542;28;20059;-86
2021/12/03 07:09:48;;;;;;;0.20;0.20;;;;;;;-1.41;100.00;99950.41;5089688;28;20037;-87
2021/12/03 07:12:16;;;;;;;0.20;0.20;;;;;;;-1.42;100.00;99946.09;5064697;28;20056;-86
2021/12/03 07:14:46;;;;;;;0.20;0.20;;;;;;;-1.49;100.00;99934.66;5069069;28;20053;-86
2021/12/03 07:17:19;;;;;;;0.20;0.20;;;;;;;-1.37;100.00;99953.44;5060632;28;20501;-86
2021/12/03 07:19:47;;;;;;;0.20;0.20;;;;;;;-1.31;100.00;99946.41;5066781;28;20037;-88
2021/12/03 07:22:21;;;;;;;0.15;0.15;;;;;;;-1.31;100.00;99949.06;5071552;28;20095;-87
2021/12/03 07:24:54;;;;;;;0.20;0.20;;;;;;;-1.34;100.00;99950.34;5070712;28;20076;-87
2021/12/03 07:27:23;;;;;;;0.20;0.20;;;;;;;-1.55;100.00;99922.19;5063631;28;20052;-85
2021/12/03 07:29:57;;;;;;;0.20;0.20;;;;;;;-1.51;100.00;99933.25;5066943;28;20053;-87
2021/12/03 07:32:31;;;;;;;0.20;0.20;;;;;;;-1.24;100.00;99956.00;5065837;28;20049;-89
2021/12/03 07:35:06;;;;;;;0.20;0.20;;;;;;;-1.15;100.00;99958.38;5062459;28;20497;-86
2021/12/03 07:37:42;;;;;;;0.20;0.20;;;;;;;-1.17;100.00;99947.94;5059026;28;20049;-89
2021/12/03 07:40:13;;;;;;;0.20;0.20;;;;;;;-1.25;100.00;99941.00;5052891;28;20045;-89
2021/12/03 07:42:46;;;;;;;0.20;0.20;;;;;;;-1.08;100.00;99951.94;5072021;28;20037;-88
2021/12/03 07:45:21;;;;;;;0.20;0.20;;;;;;;-1.48;100.00;99900.78;5054338;28;20061;-89
2021/12/03 07:47:50;;;;;;;0.30;0.30;;;;;;;-1.12;100.00;99958.78;5070206;28;20052;-88
2021/12/03 07:50:18;;;;;;;0.20;0.20;;;;;;;-1.21;100.00;99960.09;5071562;28;20047;-88
2021/12/03 07:52:51;;;;;;;0.20;0.20;;;;;;;-1.10;100.00;99966.56;5068264;28;20136;-87
2021/12/03 07:55:25;;;;;;;0.20;0.20;;;;;;;-1.47;100.00;99907.75;5071595;28;20382;-86
2021/12/03 07:57:55;;;;;;;0.20;0.20;;;;;;;-1.17;100.00;99953.25;5054759;28;20052;-86
2021/12/03 08:00:30;;;;;;;0.20;0.20;;;;;;;-1.06;100.00;99947.19;5065383;28;20045;-86
2021/12/03 08:02:58;;;;;;;0.20;0.20;;;;;;;-1.24;100.00;99945.31;5068459;28;20041;-86
2021/12/03 08:05:27;;;;;;;0.20;0.20;;;;;;;-1.15;100.00;99953.84;5066083;28;20078;-87
2021/12/03 08:08:00;;;;;;;0.20;0.20;;;;;;;-1.04;100.00;99958.50;5064174;28;20445;-86
2021/12/03 08:10:28;;;;;;;0.20;0.20;;;;;;;-0.98;100.00;99951.44;5062923;28;20056;-87
2021/12/03 08:13:02;;;;;;;0.20;0.20;;;;;;;-1.00;100.00;99948.16;5059723;28;20051;-86
2021/12/03 08:15:38;;;;;;;0.20;0.20;;;;;;;-1.06;100.00;99955.19;5064770;28;20040;-89
2021/12/03 08:18:11;;;;;;;0.20;0.20;;;;;;;-1.05;100.00;99953.34;5067967;28;20055;-89
2021/12/03 08:20:39;;;;;;;0.20;0.20;;;;;;;-1.27;100.00;99916.41;5059474;28;20080;-88
2021/12/03 08:23:13;;;;;;;0.20;0.20;;;;;;;-1.06;100.00;99963.22;5067439;28;20700;-89
2021/12/03 08:25:46;;;;;;;0.20;0.20;;;;;;;-1.02;100.00;99952.91;5067763;28;20049;-88
2021/12/03 08:28:20;;;;;;;0.20;0.20;;;;;;;-1.06;100.00;99954.41;5060673;28;20045;-88
2021/12/03 08:30:55;;;;;;;0.20;0.20;;;;;;;-0.98;100.00;99953.28;5066498;28;20412;-85
2021/12/03 08:33:28;;;;;;;0.20;0.20;;;;;;;-0.91;100.00;99959.34;5067700;28;20389;-85
2021/12/03 08:35:56;;;;;;;0.10;0.10;;;;;;;-0.83;100.00;99958.25;5059258;28;20056;-88
2021/12/03 08:38:30;;;;;;;0.20;0.20;;;;;;;-0.90;100.00;99956.50;5066086;28;20051;-80
2021/12/03 08:41:04;;;;;;;0.20;0.20;;;;;;;-0.87;100.00;99956.03;5065820;28;20516;-86
2021/12/03 08:43:37;;;;;;;0.20;0.20;;;;;;;-0.88;100.00;99951.72;5063288;28;20051;-85
2021/12/03 08:46:18;;;;;;;0.20;0.20;;;;;;;-0.84;100.00;99961.97;5062940;28;20048;-90
2021/12/03 08:48:52;;;;;;;0.20;0.20;;;;;;;-0.98;100.00;99964.78;5059568;28;20048;-89
2021/12/03 08:51:31;;;;;;;0.20;0.20;;;;;;;-0.99;100.00;99971.16;5065783;28;20056;-87
2021/12/03 08:56:56;;;;;;;0.30;0.30;;;;;;;-0.99;100.00;99968.50;5064253;28;20060;-91
2021/12/03 08:59:24;;;;;;;0.13;0.13;;;;;;;-1.06;100.00;99959.75;5062716;28;20044;-90
2021/12/03 09:01:54;;;;;;;0.20;0.20;;;;;;;-1.02;100.00;99968.94;5067195;28;20049;-86
2021/12/03 09:04:28;;;;;;;0.20;0.20;;;;;;;-1.28;100.00;99930.78;5060983;28;20052;-86
2021/12/03 09:07:02;;;;;;;0.17;0.17;;;;;;;-0.91;100.00;99970.88;5064330;28;20051;-87
2021/12/03 09:09:36;;;;;;;0.20;0.20;;;;;;;-0.95;100.00;99975.03;5058650;28;20523;-88
2021/12/03 09:12:09;;;;;;;0.20;0.20;;;;;;;-1.17;100.00;99929.25;5061918;28;20045;-87
2021/12/03 09:14:45;;;;;;;0.10;0.10;;;;;;;-0.95;100.00;99947.47;5057544;28;20362;-87
2021/12/03 09:17:33;;;;;;;0.20;0.20;;;;;;;-0.82;100.00;99965.25;5057407;28;20373;-86
2021/12/03 09:20:19;;;;;;;0.20;0.20;;;;;;;-0.71;100.00;99959.97;5056297;28;20086;-85
2021/12/03 09:22:50;;;;;;;0.17;0.17;;;;;;;-0.79;100.00;99970.94;5060235;28;20048;-90
2021/12/03 09:25:23;;;;;;;0.20;0.20;;;;;;;-0.72;100.00;99962.84;5058155;28;20099;-88
2021/12/03 09:27:51;;;;;;;0.20;0.20;;;;;;;-0.65;100.00;99965.47;5057706;28;20063;-89
2021/12/03 09:30:25;;;;;;;0.22;0.22;;;;;;;-0.65;100.00;99976.16;5059073;28;20393;-86
2021/12/03 09:32:57;;;;;;;0.20;0.20;;;;;;;-0.62;100.00;99968.50;5059350;28;20052;-87
2021/12/03 09:35:30;;;;;;;0.20;0.20;;;;;;;-0.56;100.00;99966.81;5059687;28;20053;-83
2021/12/03 09:37:59;;;;;;;0.20;0.20;;;;;;;-0.59;100.00;99969.94;5059300;28;20052;-88
2021/12/03 09:40:35;;;;;;;0.20;0.20;;;;;;;-0.62;100.00;99959.66;5054582;28;20504;-85
2021/12/03 09:43:04;;;;;;;0.22;0.22;;;;;;;-0.57;100.00;99962.47;5054900;28;20063;-88
2021/12/03 09:45:39;;;;;;;0.20;0.20;;;;;;;-0.67;100.00;99948.84;5058536;28;20059;-87
2021/12/03 09:48:26;;;;;;;0.20;0.20;;;;;;;-0.57;100.00;99957.94;5060065;28;20052;-88
2021/12/03 09:50:54;;;;;;;0.20;0.20;;;;;;;-0.71;100.00;99938.59;5063347;28;20049;-86
2021/12/03 09:53:43;;;;;;;0.20;0.20;;;;;;;-0.52;100.00;99958.09;5060192;28;20048;-91
2021/12/03 09:56:12;;;;;;;0.10;0.10;;;;;;;-0.36;100.00;99950.50;5060938;28;22097;-88
2021/12/03 09:59:23;;;;;;;0.10;0.10;;;;;;;-0.49;100.00;99956.03;5056471;28;20047;-89
2021/12/03 10:02:03;;;;;;;0.20;0.20;;;;;;;-0.53;100.00;99947.63;5062338;28;20060;-89
2021/12/03 10:04:54;;;;;;;0.20;0.20;;;;;;;-0.46;100.00;99947.56;5061874;28;20056;-84
2021/12/03 10:13:09;;;;;;;0.20;0.20;;;;;;;-0.30;100.00;99936.25;5058524;28;20103;-89
2021/12/03 10:15:49;;;;;;;0.10;0.10;;;;;;;-0.27;100.00;99938.47;5067569;28;20048;-85
2021/12/03 10:18:39;;;;;;;0.20;0.20;;;;;;;-0.26;100.00;99931.25;5060378;28;20079;-83
2021/12/03 10:21:23;;;;;;;;;;;;;;;-0.14;100.00;99934.78;5056528;28;20053;-87
2021/12/03 10:29:37;;;;;;;0.20;0.20;;;;;;;-0.05;100.00;99937.97;5037849;28;20067;-85
2021/12/03 10:32:43;;;;;;;0.20;0.20;;;;;;;-0.01;100.00;99931.13;5061419;28;20053;-90
2021/12/03 10:38:37;;;;;;;0.13;0.13;;;;;;;-0.03;100.00;99923.31;5009870;28;20526;-89
2021/12/03 10:41:23;;;;;;;0.20;0.20;;;;;;;-0.05;100.00;99928.06;4990654;28;20061;-83
2021/12/03 10:44:06;;;;;;;0.20;0.20;;;;;;;-0.07;100.00;99915.97;5036844;28;20060;-84
2021/12/03 10:46:47;;;;;;;0.20;0.20;;;;;;;0.10;100.00;99924.16;5057799;28;20051;-84
2021/12/03 10:52:24;;;;;;;0.20;0.20;;;;;;;0.03;100.00;99918.09;5054470;28;20071;-89
2021/12/03 10:55:26;;;;;;;0.20;0.20;;;;;;;0.10;100.00;99918.81;5060063;28;20063;-87
2021/12/03 10:58:24;;;;;;;0.20;0.20;;;;;;;0.02;100.00;99895.88;5054684;28;20064;-82
2021/12/03 11:30:25;;;;;;;;;;;;;;;0.40;100.00;99869.75;5056867;28;20049;-82
2021/12/03 11:39:12;;;;;;;0.20;0.20;;;;;;;0.46;100.00;99863.47;5076225;28;20043;-82
2021/12/03 11:42:15;;;;;;;0.20;0.20;;;;;;;0.54;100.00;99854.25;5041214;28;20083;-81
2021/12/03 14:00:37;;;;;;;0.20;0.20;;;;;;;0.93;100.00;99716.06;5067558;28;20059;-88
2021/12/03 14:03:56;;;;;;;0.20;0.20;;;;;;;0.86;100.00;99712.72;5041000;28;20044;-88
2021/12/03 14:41:31;;;;;;;0.30;0.30;;;;;;;0.92;100.00;99684.97;5058808;28;20456;-85
2021/12/03 14:44:21;;;;;;;0.20;0.20;;;;;;;0.89;100.00;99669.38;5030700;28;20334;-85
2021/12/03 14:47:09;;;;;;;0.20;0.20;;;;;;;0.91;100.00;99647.72;5025801;28;20394;-86
2021/12/03 14:50:21;;;;;;;0.20;0.20;;;;;;;1.02;100.00;99655.69;5020778;28;20060;-83
2021/12/03 14:53:09;;;;;;;0.30;0.30;;;;;;;0.89;100.00;99660.53;5026182;28;20072;-86
2021/12/03 14:55:47;;;;;;;0.20;0.20;;;;;;;0.82;100.00;99645.41;5020181;28;20053;-85
2021/12/03 14:58:17;;;;;;;0.20;0.20;;;;;;;0.67;100.00;99634.44;5018728;28;20054;-85
2021/12/03 15:00:56;;;;;;;0.20;0.20;;;;;;;0.62;100.00;99650.41;5022862;28;20861;-85
2021/12/03 15:03:45;;;;;;;0.20;0.20;;;;;;;0.46;100.00;99627.91;5001507;28;20067;-84
2021/12/03 15:06:28;;;;;;;0.15;0.15;;;;;;;0.30;100.00;99630.28;5017207;28;21290;-84
2021/12/03 15:08:58;;;;;;;0.20;0.20;;;;;;;0.14;100.00;99629.16;5016072;28;20061;-85
2021/12/03 15:14:55;;;;;;;0.20;0.20;;;;;;;0.05;100.00;99617.19;5027750;28;20056;-83
2021/12/03 15:26:41;;;;;;;0.20;0.20;;;;;;;-0.09;100.00;99589.91;4971525;28;20057;-85
2021/12/03 15:32:00;;;;;;;0.13;0.13;;;;;;;0.17;100.00;99593.91;5018164;28;20052;-84
2021/12/03 15:34:50;;;;;;;0.20;0.20;;;;;;;0.14;100.00;99590.91;5018147;28;20056;-82
2021/12/03 15:40:36;;;;;;;0.20;0.20;;;;;;;0.21;100.00;99577.34;5019387;28;20512;-85
2021/12/03 15:57:28;;;;;;;0.20;0.20;;;;;;;0.22;100.00;99555.75;5017554;28;20060;-84
2021/12/03 16:08:36;;;;;;;0.20;0.20;;;;;;;0.01;100.00;99540.34;5020402;28;20052;-83
2021/12/03 16:11:12;;;;;;;0.10;0.10;;;;;;;-0.16;100.00;99524.25;5020133;28;20053;-84
2021/12/03 16:13:52;;;;;;;0.20;0.20;;;;;;;-0.19;100.00;99542.38;5017863;28;20670;-84
2021/12/03 16:22:26;;;;;;;0.25;0.25;;;;;;;-0.32;100.00;99517.75;5006879;28;20755;-83
2021/12/03 16:25:11;;;;;;;0.20;0.20;;;;;;;-0.28;100.00;99514.38;5020430;28;20422;-83
2021/12/03 16:45:03;;;;;;;0.20;0.20;;;;;;;-0.32;100.00;99499.06;5031376;28;20041;-84
2021/12/03 16:47:51;;;;;;;0.20;0.20;;;;;;;-0.30;100.00;99486.25;5034689;28;20053;-83
2021/12/03 16:53:09;;;;;;;0.20;0.20;;;;;;;-0.34;100.00;99485.91;5001981;28;20420;-87